sensor_id;sensor_type;location;lat;lon;timestamp;temperature;humidity
12426;DHT22;6277;49.824;9.562;2022-10-16T00:01:10;19.00;75.30
12426;DHT22;6277;49.824;9.562;2022-10-16T00:03:38;19.00;76.10
12426;DHT22;6277;49.824;9.562;2022-10-16T00:06:04;19.10;75.40
12426;DHT22;6277;49.824;9.562;2022-10-16T00:08:30;19.10;75.40
12426;DHT22;6277;49.824;9.562;2022-10-16T00:11:27;19.10;75.40
12426;DHT22;6277;49.824;9.562;2022-10-16T00:13:57;19.10;75.90
12426;DHT22;6277;49.824;9.562;2022-10-16T00:16:23;19.10;75.50
12426;DHT22;6277;49.824;9.562;2022-10-16T00:18:48;19.20;75.40
12426;DHT22;6277;49.824;9.562;2022-10-16T00:21:18;19.20;75.40
12426;DHT22;6277;49.824;9.562;2022-10-16T00:23:44;19.20;75.60
12426;DHT22;6277;49.824;9.562;2022-10-16T00:26:13;19.20;75.40
12426;DHT22;6277;49.824;9.562;2022-10-16T00:28:38;19.20;75.50
12426;DHT22;6277;49.824;9.562;2022-10-16T00:31:06;19.20;75.40
12426;DHT22;6277;49.824;9.562;2022-10-16T00:33:32;19.30;75.60
12426;DHT22;6277;49.824;9.562;2022-10-16T00:35:59;19.20;75.40
12426;DHT22;6277;49.824;9.562;2022-10-16T00:38:25;19.30;75.50
12426;DHT22;6277;49.824;9.562;2022-10-16T00:40:50;19.30;75.40
12426;DHT22;6277;49.824;9.562;2022-10-16T00:43:40;19.30;75.40
12426;DHT22;6277;49.824;9.562;2022-10-16T00:46:15;19.20;76.00
12426;DHT22;6277;49.824;9.562;2022-10-16T00:48:45;19.20;75.00
12426;DHT22;6277;49.824;9.562;2022-10-16T00:51:14;19.00;74.90
12426;DHT22;6277;49.824;9.562;2022-10-16T00:53:39;18.90;74.80
12426;DHT22;6277;49.824;9.562;2022-10-16T00:56:05;18.80;75.00
12426;DHT22;6277;49.824;9.562;2022-10-16T00:58:31;18.60;75.00
12426;DHT22;6277;49.824;9.562;2022-10-16T01:00:57;18.50;75.20
12426;DHT22;6277;49.824;9.562;2022-10-16T01:03:35;18.40;75.50
12426;DHT22;6277;49.824;9.562;2022-10-16T01:06:36;18.30;76.50
12426;DHT22;6277;49.824;9.562;2022-10-16T01:09:17;18.20;77.10
12426;DHT22;6277;49.824;9.562;2022-10-16T01:12:13;18.20;77.00
12426;DHT22;6277;49.824;9.562;2022-10-16T01:14:56;18.10;77.80
12426;DHT22;6277;49.824;9.562;2022-10-16T01:28:11;18.00;77.70
12426;DHT22;6277;49.824;9.562;2022-10-16T01:30:40;18.00;77.60
12426;DHT22;6277;49.824;9.562;2022-10-16T01:33:12;18.00;77.70
12426;DHT22;6277;49.824;9.562;2022-10-16T01:35:46;17.90;78.00
12426;DHT22;6277;49.824;9.562;2022-10-16T01:40:46;17.90;78.40
12426;DHT22;6277;49.824;9.562;2022-10-16T01:43:17;17.90;79.00
12426;DHT22;6277;49.824;9.562;2022-10-16T01:45:45;17.90;78.50
12426;DHT22;6277;49.824;9.562;2022-10-16T01:48:13;17.90;78.50
12426;DHT22;6277;49.824;9.562;2022-10-16T01:50:44;17.90;78.70
12426;DHT22;6277;49.824;9.562;2022-10-16T01:53:12;17.90;78.80
12426;DHT22;6277;49.824;9.562;2022-10-16T01:55:41;18.00;79.00
12426;DHT22;6277;49.824;9.562;2022-10-16T01:58:11;18.00;79.20
12426;DHT22;6277;49.824;9.562;2022-10-16T02:00:39;18.00;79.10
12426;DHT22;6277;49.824;9.562;2022-10-16T02:03:07;18.00;79.10
12426;DHT22;6277;49.824;9.562;2022-10-16T02:05:55;18.10;79.20
12426;DHT22;6277;49.824;9.562;2022-10-16T02:08:19;18.10;79.20
12426;DHT22;6277;49.824;9.562;2022-10-16T02:10:46;18.10;79.20
12426;DHT22;6277;49.824;9.562;2022-10-16T02:13:12;18.10;79.20
12426;DHT22;6277;49.824;9.562;2022-10-16T02:15:38;18.10;79.40
12426;DHT22;6277;49.824;9.562;2022-10-16T02:18:05;18.20;79.50
12426;DHT22;6277;49.824;9.562;2022-10-16T02:20:36;18.20;79.60
12426;DHT22;6277;49.824;9.562;2022-10-16T02:23:07;18.20;79.90
12426;DHT22;6277;49.824;9.562;2022-10-16T02:25:40;18.30;79.90
12426;DHT22;6277;49.824;9.562;2022-10-16T02:28:17;18.30;79.70
12426;DHT22;6277;49.824;9.562;2022-10-16T02:30:48;18.30;79.90
12426;DHT22;6277;49.824;9.562;2022-10-16T02:33:16;18.30;79.80
12426;DHT22;6277;49.824;9.562;2022-10-16T02:35:44;18.30;79.80
12426;DHT22;6277;49.824;9.562;2022-10-16T02:38:12;18.30;79.80
12426;DHT22;6277;49.824;9.562;2022-10-16T02:40:39;18.40;79.90
12426;DHT22;6277;49.824;9.562;2022-10-16T02:43:05;18.40;79.80
12426;DHT22;6277;49.824;9.562;2022-10-16T02:45:31;18.40;79.90
12426;DHT22;6277;49.824;9.562;2022-10-16T02:47:57;18.40;79.70
12426;DHT22;6277;49.824;9.562;2022-10-16T02:50:22;18.40;79.70
12426;DHT22;6277;49.824;9.562;2022-10-16T02:52:49;18.40;79.90
12426;DHT22;6277;49.824;9.562;2022-10-16T02:55:15;18.40;80.10
12426;DHT22;6277;49.824;9.562;2022-10-16T02:57:40;18.40;80.10
12426;DHT22;6277;49.824;9.562;2022-10-16T03:00:08;18.40;80.20
12426;DHT22;6277;49.824;9.562;2022-10-16T03:02:34;18.40;80.30
12426;DHT22;6277;49.824;9.562;2022-10-16T03:05:00;18.50;80.30
12426;DHT22;6277;49.824;9.562;2022-10-16T03:07:25;18.50;80.30
12426;DHT22;6277;49.824;9.562;2022-10-16T03:09:51;18.50;80.30
12426;DHT22;6277;49.824;9.562;2022-10-16T03:12:16;18.50;80.20
12426;DHT22;6277;49.824;9.562;2022-10-16T03:14:42;18.50;80.20
12426;DHT22;6277;49.824;9.562;2022-10-16T03:17:07;18.50;80.10
12426;DHT22;6277;49.824;9.562;2022-10-16T03:19:33;18.50;80.10
12426;DHT22;6277;49.824;9.562;2022-10-16T03:21:58;18.50;80.10
12426;DHT22;6277;49.824;9.562;2022-10-16T03:24:24;18.50;80.00
12426;DHT22;6277;49.824;9.562;2022-10-16T03:26:49;18.50;79.90
12426;DHT22;6277;49.824;9.562;2022-10-16T03:29:15;18.50;79.80
12426;DHT22;6277;49.824;9.562;2022-10-16T03:31:40;18.50;79.80
12426;DHT22;6277;49.824;9.562;2022-10-16T03:34:06;18.40;79.80
12426;DHT22;6277;49.824;9.562;2022-10-16T03:36:32;18.40;79.90
12426;DHT22;6277;49.824;9.562;2022-10-16T03:38:57;18.40;79.90
12426;DHT22;6277;49.824;9.562;2022-10-16T03:41:23;18.40;79.90
12426;DHT22;6277;49.824;9.562;2022-10-16T03:43:48;18.40;79.90
12426;DHT22;6277;49.824;9.562;2022-10-16T03:46:14;18.30;80.00
12426;DHT22;6277;49.824;9.562;2022-10-16T03:48:39;18.30;79.90
12426;DHT22;6277;49.824;9.562;2022-10-16T03:51:05;18.30;79.90
12426;DHT22;6277;49.824;9.562;2022-10-16T03:53:31;18.30;79.90
12426;DHT22;6277;49.824;9.562;2022-10-16T03:55:56;18.30;80.00
12426;DHT22;6277;49.824;9.562;2022-10-16T03:58:22;18.20;80.00
12426;DHT22;6277;49.824;9.562;2022-10-16T04:00:48;18.20;80.00
12426;DHT22;6277;49.824;9.562;2022-10-16T04:03:13;18.20;80.00
12426;DHT22;6277;49.824;9.562;2022-10-16T04:05:39;18.20;80.10
12426;DHT22;6277;49.824;9.562;2022-10-16T04:08:05;18.20;80.20
12426;DHT22;6277;49.824;9.562;2022-10-16T04:10:31;18.10;80.30
12426;DHT22;6277;49.824;9.562;2022-10-16T04:12:57;18.10;80.40
12426;DHT22;6277;49.824;9.562;2022-10-16T04:15:23;18.20;80.50
12426;DHT22;6277;49.824;9.562;2022-10-16T04:17:49;18.10;80.50
12426;DHT22;6277;49.824;9.562;2022-10-16T04:20:15;18.10;80.50
12426;DHT22;6277;49.824;9.562;2022-10-16T04:22:40;18.10;80.60
12426;DHT22;6277;49.824;9.562;2022-10-16T04:25:06;18.20;80.80
12426;DHT22;6277;49.824;9.562;2022-10-16T04:27:32;18.20;80.80
12426;DHT22;6277;49.824;9.562;2022-10-16T04:29:58;18.20;80.90
12426;DHT22;6277;49.824;9.562;2022-10-16T04:32:24;18.20;80.80
12426;DHT22;6277;49.824;9.562;2022-10-16T04:34:49;18.20;80.90
12426;DHT22;6277;49.824;9.562;2022-10-16T04:37:15;18.20;80.90
12426;DHT22;6277;49.824;9.562;2022-10-16T04:39:40;18.20;81.00
12426;DHT22;6277;49.824;9.562;2022-10-16T04:42:06;18.30;81.00
12426;DHT22;6277;49.824;9.562;2022-10-16T04:44:31;18.30;81.00
12426;DHT22;6277;49.824;9.562;2022-10-16T04:46:57;18.30;80.90
12426;DHT22;6277;49.824;9.562;2022-10-16T04:49:22;18.30;81.00
12426;DHT22;6277;49.824;9.562;2022-10-16T04:51:48;18.30;81.00
12426;DHT22;6277;49.824;9.562;2022-10-16T04:54:14;18.40;81.00
12426;DHT22;6277;49.824;9.562;2022-10-16T04:56:39;18.40;81.00
12426;DHT22;6277;49.824;9.562;2022-10-16T04:59:16;18.40;81.00
12426;DHT22;6277;49.824;9.562;2022-10-16T05:01:41;18.30;81.00
12426;DHT22;6277;49.824;9.562;2022-10-16T05:04:07;18.40;81.10
12426;DHT22;6277;49.824;9.562;2022-10-16T05:06:33;18.40;81.10
12426;DHT22;6277;49.824;9.562;2022-10-16T05:08:58;18.40;81.00
12426;DHT22;6277;49.824;9.562;2022-10-16T05:11:24;18.40;81.10
12426;DHT22;6277;49.824;9.562;2022-10-16T05:13:49;18.40;81.10
12426;DHT22;6277;49.824;9.562;2022-10-16T05:16:15;18.40;81.10
12426;DHT22;6277;49.824;9.562;2022-10-16T05:18:40;18.40;81.70
12426;DHT22;6277;49.824;9.562;2022-10-16T05:21:06;18.40;81.00
12426;DHT22;6277;49.824;9.562;2022-10-16T05:23:32;18.50;81.00
12426;DHT22;6277;49.824;9.562;2022-10-16T05:25:58;18.50;81.00
12426;DHT22;6277;49.824;9.562;2022-10-16T05:28:25;18.50;80.90
12426;DHT22;6277;49.824;9.562;2022-10-16T05:30:51;18.40;80.80
12426;DHT22;6277;49.824;9.562;2022-10-16T05:33:17;18.50;80.80
12426;DHT22;6277;49.824;9.562;2022-10-16T05:35:42;18.40;80.80
12426;DHT22;6277;49.824;9.562;2022-10-16T05:38:09;18.40;81.40
12426;DHT22;6277;49.824;9.562;2022-10-16T05:40:34;18.40;80.70
12426;DHT22;6277;49.824;9.562;2022-10-16T05:43:00;18.40;80.60
12426;DHT22;6277;49.824;9.562;2022-10-16T05:45:26;18.40;80.60
12426;DHT22;6277;49.824;9.562;2022-10-16T05:47:51;18.40;80.60
12426;DHT22;6277;49.824;9.562;2022-10-16T05:50:17;18.40;80.60
12426;DHT22;6277;49.824;9.562;2022-10-16T05:52:42;18.30;80.50
12426;DHT22;6277;49.824;9.562;2022-10-16T05:55:08;18.30;80.70
12426;DHT22;6277;49.824;9.562;2022-10-16T05:57:34;18.30;80.70
12426;DHT22;6277;49.824;9.562;2022-10-16T05:59:59;18.30;80.70
12426;DHT22;6277;49.824;9.562;2022-10-16T06:02:25;18.30;80.80
12426;DHT22;6277;49.824;9.562;2022-10-16T06:04:53;18.30;80.90
12426;DHT22;6277;49.824;9.562;2022-10-16T06:07:19;18.30;81.00
12426;DHT22;6277;49.824;9.562;2022-10-16T06:09:51;18.30;80.90
12426;DHT22;6277;49.824;9.562;2022-10-16T06:12:17;18.30;81.10
12426;DHT22;6277;49.824;9.562;2022-10-16T06:14:44;18.30;81.10
12426;DHT22;6277;49.824;9.562;2022-10-16T06:17:09;18.30;81.10
12426;DHT22;6277;49.824;9.562;2022-10-16T06:19:35;18.30;81.10
12426;DHT22;6277;49.824;9.562;2022-10-16T06:22:00;18.40;81.20
12426;DHT22;6277;49.824;9.562;2022-10-16T06:24:27;18.40;81.20
12426;DHT22;6277;49.824;9.562;2022-10-16T06:26:53;18.40;81.30
12426;DHT22;6277;49.824;9.562;2022-10-16T06:29:18;18.40;81.40
12426;DHT22;6277;49.824;9.562;2022-10-16T06:31:44;18.40;81.40
12426;DHT22;6277;49.824;9.562;2022-10-16T06:34:10;18.50;81.50
12426;DHT22;6277;49.824;9.562;2022-10-16T06:36:37;18.50;81.70
12426;DHT22;6277;49.824;9.562;2022-10-16T06:39:04;18.50;81.70
12426;DHT22;6277;49.824;9.562;2022-10-16T06:41:30;18.60;81.80
12426;DHT22;6277;49.824;9.562;2022-10-16T06:43:56;18.60;81.80
12426;DHT22;6277;49.824;9.562;2022-10-16T06:46:23;18.70;81.90
12426;DHT22;6277;49.824;9.562;2022-10-16T06:48:49;18.70;81.90
12426;DHT22;6277;49.824;9.562;2022-10-16T06:51:20;18.70;81.90
12426;DHT22;6277;49.824;9.562;2022-10-16T06:53:51;18.80;82.10
12426;DHT22;6277;49.824;9.562;2022-10-16T06:56:25;18.90;82.10
12426;DHT22;6277;49.824;9.562;2022-10-16T06:58:52;18.90;82.00
12426;DHT22;6277;49.824;9.562;2022-10-16T07:01:20;18.90;82.00
12426;DHT22;6277;49.824;9.562;2022-10-16T07:03:47;19.00;82.00
12426;DHT22;6277;49.824;9.562;2022-10-16T07:06:17;19.00;82.10
12426;DHT22;6277;49.824;9.562;2022-10-16T07:08:45;19.10;82.20
12426;DHT22;6277;49.824;9.562;2022-10-16T07:11:13;19.20;82.30
12426;DHT22;6277;49.824;9.562;2022-10-16T07:13:40;19.20;82.30
12426;DHT22;6277;49.824;9.562;2022-10-16T07:16:07;19.20;82.20
12426;DHT22;6277;49.824;9.562;2022-10-16T07:18:34;19.30;82.30
12426;DHT22;6277;49.824;9.562;2022-10-16T07:21:04;19.40;82.30
12426;DHT22;6277;49.824;9.562;2022-10-16T07:23:30;19.40;82.30
12426;DHT22;6277;49.824;9.562;2022-10-16T07:25:55;19.50;82.30
12426;DHT22;6277;49.824;9.562;2022-10-16T07:28:21;19.60;82.30
12426;DHT22;6277;49.824;9.562;2022-10-16T07:30:47;19.60;82.30
12426;DHT22;6277;49.824;9.562;2022-10-16T07:33:13;19.70;82.40
12426;DHT22;6277;49.824;9.562;2022-10-16T07:35:48;19.80;82.40
12426;DHT22;6277;49.824;9.562;2022-10-16T07:38:13;19.90;82.40
12426;DHT22;6277;49.824;9.562;2022-10-16T07:40:39;19.90;82.40
12426;DHT22;6277;49.824;9.562;2022-10-16T07:43:04;20.00;82.40
12426;DHT22;6277;49.824;9.562;2022-10-16T07:45:30;20.10;82.30
12426;DHT22;6277;49.824;9.562;2022-10-16T07:47:56;20.10;82.00
12426;DHT22;6277;49.824;9.562;2022-10-16T07:50:21;20.20;81.80
12426;DHT22;6277;49.824;9.562;2022-10-16T07:52:47;20.20;81.60
12426;DHT22;6277;49.824;9.562;2022-10-16T07:55:12;20.30;81.50
12426;DHT22;6277;49.824;9.562;2022-10-16T07:57:38;20.30;81.40
12426;DHT22;6277;49.824;9.562;2022-10-16T08:00:04;20.30;81.30
12426;DHT22;6277;49.824;9.562;2022-10-16T08:02:31;20.30;81.30
12426;DHT22;6277;49.824;9.562;2022-10-16T08:04:57;20.40;81.40
12426;DHT22;6277;49.824;9.562;2022-10-16T08:07:23;20.50;81.50
12426;DHT22;6277;49.824;9.562;2022-10-16T08:09:51;20.50;81.60
12426;DHT22;6277;49.824;9.562;2022-10-16T08:12:17;20.50;81.50
12426;DHT22;6277;49.824;9.562;2022-10-16T08:14:43;20.60;81.80
12426;DHT22;6277;49.824;9.562;2022-10-16T08:17:08;20.70;82.10
12426;DHT22;6277;49.824;9.562;2022-10-16T08:19:34;20.70;82.10
12426;DHT22;6277;49.824;9.562;2022-10-16T08:22:00;20.90;82.40
12426;DHT22;6277;49.824;9.562;2022-10-16T08:24:26;21.00;82.30
12426;DHT22;6277;49.824;9.562;2022-10-16T08:26:54;21.10;82.20
12426;DHT22;6277;49.824;9.562;2022-10-16T08:29:19;21.20;82.00
12426;DHT22;6277;49.824;9.562;2022-10-16T08:31:45;21.30;82.10
12426;DHT22;6277;49.824;9.562;2022-10-16T08:34:10;21.40;82.00
12426;DHT22;6277;49.824;9.562;2022-10-16T08:36:36;21.60;82.30
12426;DHT22;6277;49.824;9.562;2022-10-16T08:39:02;21.60;81.30
12426;DHT22;6277;49.824;9.562;2022-10-16T08:47:45;21.80;79.40
12426;DHT22;6277;49.824;9.562;2022-10-16T08:50:25;21.80;79.10
12426;DHT22;6277;49.824;9.562;2022-10-16T08:52:52;21.80;79.00
12426;DHT22;6277;49.824;9.562;2022-10-16T08:55:53;21.70;79.30
12426;DHT22;6277;49.824;9.562;2022-10-16T08:58:20;21.80;79.10
12426;DHT22;6277;49.824;9.562;2022-10-16T09:00:55;21.80;79.60
12426;DHT22;6277;49.824;9.562;2022-10-16T09:17:32;21.90;78.90
12426;DHT22;6277;49.824;9.562;2022-10-16T09:22:39;22.00;78.40
12426;DHT22;6277;49.824;9.562;2022-10-16T09:25:19;22.00;78.20
12426;DHT22;6277;49.824;9.562;2022-10-16T09:27:48;22.00;77.50
12426;DHT22;6277;49.824;9.562;2022-10-16T09:30:17;22.00;77.80
12426;DHT22;6277;49.824;9.562;2022-10-16T09:32:44;21.90;77.80
12426;DHT22;6277;49.824;9.562;2022-10-16T09:35:16;21.90;77.80
12426;DHT22;6277;49.824;9.562;2022-10-16T09:37:44;21.90;77.30
12426;DHT22;6277;49.824;9.562;2022-10-16T09:40:26;21.80;77.50
12426;DHT22;6277;49.824;9.562;2022-10-16T09:43:22;21.90;77.30
12426;DHT22;6277;49.824;9.562;2022-10-16T09:46:01;21.80;77.20
12426;DHT22;6277;49.824;9.562;2022-10-16T09:48:46;21.70;77.00
12426;DHT22;6277;49.824;9.562;2022-10-16T09:51:26;21.60;76.60
12426;DHT22;6277;49.824;9.562;2022-10-16T09:54:00;21.60;76.60
12426;DHT22;6277;49.824;9.562;2022-10-16T09:56:31;21.50;76.60
12426;DHT22;6277;49.824;9.562;2022-10-16T09:59:01;21.40;76.60
12426;DHT22;6277;49.824;9.562;2022-10-16T10:01:40;21.30;76.80
12426;DHT22;6277;49.824;9.562;2022-10-16T10:04:06;21.20;77.00
12426;DHT22;6277;49.824;9.562;2022-10-16T10:06:35;21.00;77.00
12426;DHT22;6277;49.824;9.562;2022-10-16T10:09:26;20.90;77.30
12426;DHT22;6277;49.824;9.562;2022-10-16T10:11:59;20.80;77.80
12426;DHT22;6277;49.824;9.562;2022-10-16T10:14:50;20.70;78.00
12426;DHT22;6277;49.824;9.562;2022-10-16T10:17:21;20.60;78.50
12426;DHT22;6277;49.824;9.562;2022-10-16T10:22:39;20.60;79.40
12426;DHT22;6277;49.824;9.562;2022-10-16T10:25:14;20.60;79.90
12426;DHT22;6277;49.824;9.562;2022-10-16T10:28:16;20.70;80.20
12426;DHT22;6277;49.824;9.562;2022-10-16T10:30:49;20.70;80.40
12426;DHT22;6277;49.824;9.562;2022-10-16T10:33:28;20.80;80.60
12426;DHT22;6277;49.824;9.562;2022-10-16T10:44:33;21.30;81.30
12426;DHT22;6277;49.824;9.562;2022-10-16T11:00:28;21.70;79.30
12426;DHT22;6277;49.824;9.562;2022-10-16T11:06:14;21.70;78.70
12426;DHT22;6277;49.824;9.562;2022-10-16T11:08:44;21.70;78.40
12426;DHT22;6277;49.824;9.562;2022-10-16T11:11:29;21.70;78.40
12426;DHT22;6277;49.824;9.562;2022-10-16T11:14:14;21.70;78.30
12426;DHT22;6277;49.824;9.562;2022-10-16T11:16:56;21.60;78.30
12426;DHT22;6277;49.824;9.562;2022-10-16T11:19:37;21.60;78.60
12426;DHT22;6277;49.824;9.562;2022-10-16T11:30:47;21.80;79.10
12426;DHT22;6277;49.824;9.562;2022-10-16T11:36:53;22.00;79.60
12426;DHT22;6277;49.824;9.562;2022-10-16T11:39:00;22.10;79.70
12426;DHT22;6277;49.824;9.562;2022-10-16T11:41:34;22.20;79.60
12426;DHT22;6277;49.824;9.562;2022-10-16T11:47:27;22.40;79.20
12426;DHT22;6277;49.824;9.562;2022-10-16T11:52:55;22.60;78.60
12426;DHT22;6277;49.824;9.562;2022-10-16T11:55:40;22.70;78.00
12426;DHT22;6277;49.824;9.562;2022-10-16T11:58:26;22.70;77.70
12426;DHT22;6277;49.824;9.562;2022-10-16T12:00:59;22.70;77.30
12426;DHT22;6277;49.824;9.562;2022-10-16T12:03:37;22.70;76.80
12426;DHT22;6277;49.824;9.562;2022-10-16T12:08:37;22.80;76.50
12426;DHT22;6277;49.824;9.562;2022-10-16T12:16:50;22.80;76.10
12426;DHT22;6277;49.824;9.562;2022-10-16T12:19:20;22.90;76.80
12426;DHT22;6277;49.824;9.562;2022-10-16T12:21:46;22.90;76.50
12426;DHT22;6277;49.824;9.562;2022-10-16T12:24:42;22.90;76.50
12426;DHT22;6277;49.824;9.562;2022-10-16T12:27:37;23.00;75.90
12426;DHT22;6277;49.824;9.562;2022-10-16T12:30:06;23.10;75.40
12426;DHT22;6277;49.824;9.562;2022-10-16T12:32:36;23.20;76.00
12426;DHT22;6277;49.824;9.562;2022-10-16T12:35:05;23.20;75.80
12426;DHT22;6277;49.824;9.562;2022-10-16T12:37:36;23.30;75.90
12426;DHT22;6277;49.824;9.562;2022-10-16T12:40:15;23.40;75.70
12426;DHT22;6277;49.824;9.562;2022-10-16T12:42:41;23.50;75.80
12426;DHT22;6277;49.824;9.562;2022-10-16T12:45:24;23.60;76.70
12426;DHT22;6277;49.824;9.562;2022-10-16T12:47:52;23.80;75.60
12426;DHT22;6277;49.824;9.562;2022-10-16T12:50:38;23.90;75.50
12426;DHT22;6277;49.824;9.562;2022-10-16T12:53:25;24.00;74.40
12426;DHT22;6277;49.824;9.562;2022-10-16T12:56:08;24.10;74.50
12426;DHT22;6277;49.824;9.562;2022-10-16T12:58:41;24.20;74.50
12426;DHT22;6277;49.824;9.562;2022-10-16T13:01:23;24.30;74.80
12426;DHT22;6277;49.824;9.562;2022-10-16T13:06:42;24.40;73.10
12426;DHT22;6277;49.824;9.562;2022-10-16T13:19:38;24.60;72.50
12426;DHT22;6277;49.824;9.562;2022-10-16T13:22:23;24.60;72.40
12426;DHT22;6277;49.824;9.562;2022-10-16T13:25:27;24.50;71.80
12426;DHT22;6277;49.824;9.562;2022-10-16T13:28:00;24.50;71.70
12426;DHT22;6277;49.824;9.562;2022-10-16T13:30:29;24.50;72.50
12426;DHT22;6277;49.824;9.562;2022-10-16T13:33:00;24.50;72.30
12426;DHT22;6277;49.824;9.562;2022-10-16T13:35:32;24.50;72.00
12426;DHT22;6277;49.824;9.562;2022-10-16T13:38:24;24.50;71.90
12426;DHT22;6277;49.824;9.562;2022-10-16T13:43:35;24.50;71.40
12426;DHT22;6277;49.824;9.562;2022-10-16T13:46:04;24.50;71.90
12426;DHT22;6277;49.824;9.562;2022-10-16T13:48:31;24.50;71.70
12426;DHT22;6277;49.824;9.562;2022-10-16T13:51:10;24.60;72.00
12426;DHT22;6277;49.824;9.562;2022-10-16T13:53:37;24.60;71.40
12426;DHT22;6277;49.824;9.562;2022-10-16T13:56:18;24.60;71.90
12426;DHT22;6277;49.824;9.562;2022-10-16T13:58:44;24.70;71.30
12426;DHT22;6277;49.824;9.562;2022-10-16T14:01:17;24.70;71.60
12426;DHT22;6277;49.824;9.562;2022-10-16T14:03:45;24.70;71.10
12426;DHT22;6277;49.824;9.562;2022-10-16T14:06:14;24.70;71.50
12426;DHT22;6277;49.824;9.562;2022-10-16T14:09:09;24.80;71.60
12426;DHT22;6277;49.824;9.562;2022-10-16T14:11:48;24.80;70.80
12426;DHT22;6277;49.824;9.562;2022-10-16T14:14:14;24.90;70.70
12426;DHT22;6277;49.824;9.562;2022-10-16T14:16:42;24.90;71.30
12426;DHT22;6277;49.824;9.562;2022-10-16T14:19:19;25.00;70.80
12426;DHT22;6277;49.824;9.562;2022-10-16T14:21:45;25.00;70.00
12426;DHT22;6277;49.824;9.562;2022-10-16T14:24:12;25.00;70.40
12426;DHT22;6277;49.824;9.562;2022-10-16T14:26:44;25.00;69.80
12426;DHT22;6277;49.824;9.562;2022-10-16T14:29:17;25.00;69.20
12426;DHT22;6277;49.824;9.562;2022-10-16T14:31:57;25.00;69.20
12426;DHT22;6277;49.824;9.562;2022-10-16T14:34:32;25.00;68.80
12426;DHT22;6277;49.824;9.562;2022-10-16T14:37:14;24.90;68.80
12426;DHT22;6277;49.824;9.562;2022-10-16T14:39:41;24.80;68.70
12426;DHT22;6277;49.824;9.562;2022-10-16T14:42:21;24.80;69.10
12426;DHT22;6277;49.824;9.562;2022-10-16T14:44:50;24.70;68.70
12426;DHT22;6277;49.824;9.562;2022-10-16T14:47:19;24.70;69.10
12426;DHT22;6277;49.824;9.562;2022-10-16T14:49:51;24.60;69.20
12426;DHT22;6277;49.824;9.562;2022-10-16T14:52:17;24.60;69.30
12426;DHT22;6277;49.824;9.562;2022-10-16T14:54:43;24.50;69.20
12426;DHT22;6277;49.824;9.562;2022-10-16T14:57:19;24.50;69.30
12426;DHT22;6277;49.824;9.562;2022-10-16T14:59:45;24.40;69.10
12426;DHT22;6277;49.824;9.562;2022-10-16T15:04:46;24.40;69.50
12426;DHT22;6277;49.824;9.562;2022-10-16T15:07:12;24.40;69.90
12426;DHT22;6277;49.824;9.562;2022-10-16T15:09:37;24.40;69.70
12426;DHT22;6277;49.824;9.562;2022-10-16T15:12:04;24.40;69.50
12426;DHT22;6277;49.824;9.562;2022-10-16T15:14:30;24.40;69.70
12426;DHT22;6277;49.824;9.562;2022-10-16T15:16:55;24.30;69.60
12426;DHT22;6277;49.824;9.562;2022-10-16T15:19:21;24.40;69.70
12426;DHT22;6277;49.824;9.562;2022-10-16T15:21:47;24.30;69.60
12426;DHT22;6277;49.824;9.562;2022-10-16T15:24:13;24.30;69.70
12426;DHT22;6277;49.824;9.562;2022-10-16T15:26:39;24.20;69.60
12426;DHT22;6277;49.824;9.562;2022-10-16T15:29:05;24.20;69.60
12426;DHT22;6277;49.824;9.562;2022-10-16T15:31:31;24.10;69.60
12426;DHT22;6277;49.824;9.562;2022-10-16T15:33:57;24.10;69.60
12426;DHT22;6277;49.824;9.562;2022-10-16T15:36:35;24.10;69.70
12426;DHT22;6277;49.824;9.562;2022-10-16T15:39:03;24.00;69.60
12426;DHT22;6277;49.824;9.562;2022-10-16T15:41:29;23.90;69.60
12426;DHT22;6277;49.824;9.562;2022-10-16T15:43:55;23.80;69.70
12426;DHT22;6277;49.824;9.562;2022-10-16T15:46:22;23.80;69.70
12426;DHT22;6277;49.824;9.562;2022-10-16T15:48:49;23.70;69.60
12426;DHT22;6277;49.824;9.562;2022-10-16T15:51:15;23.70;69.60
12426;DHT22;6277;49.824;9.562;2022-10-16T15:53:41;23.60;69.70
12426;DHT22;6277;49.824;9.562;2022-10-16T15:56:09;23.50;69.80
12426;DHT22;6277;49.824;9.562;2022-10-16T15:58:36;23.50;70.00
12426;DHT22;6277;49.824;9.562;2022-10-16T16:01:02;23.40;69.90
12426;DHT22;6277;49.824;9.562;2022-10-16T16:03:29;23.40;70.00
12426;DHT22;6277;49.824;9.562;2022-10-16T16:05:55;23.30;70.10
12426;DHT22;6277;49.824;9.562;2022-10-16T16:08:21;23.30;70.20
12426;DHT22;6277;49.824;9.562;2022-10-16T16:11:01;23.20;70.20
12426;DHT22;6277;49.824;9.562;2022-10-16T16:13:27;23.10;70.30
12426;DHT22;6277;49.824;9.562;2022-10-16T16:15:52;23.10;70.30
12426;DHT22;6277;49.824;9.562;2022-10-16T16:18:18;23.00;70.40
12426;DHT22;6277;49.824;9.562;2022-10-16T16:20:43;23.00;70.50
12426;DHT22;6277;49.824;9.562;2022-10-16T16:23:09;22.90;70.50
12426;DHT22;6277;49.824;9.562;2022-10-16T16:25:34;22.80;70.50
12426;DHT22;6277;49.824;9.562;2022-10-16T16:28:00;22.80;70.60
12426;DHT22;6277;49.824;9.562;2022-10-16T16:30:26;22.70;70.50
12426;DHT22;6277;49.824;9.562;2022-10-16T16:32:51;22.60;70.60
12426;DHT22;6277;49.824;9.562;2022-10-16T16:35:17;22.50;70.60
12426;DHT22;6277;49.824;9.562;2022-10-16T16:37:42;22.30;70.50
12426;DHT22;6277;49.824;9.562;2022-10-16T16:40:08;22.20;70.40
12426;DHT22;6277;49.824;9.562;2022-10-16T16:42:33;22.20;70.50
12426;DHT22;6277;49.824;9.562;2022-10-16T16:44:59;22.10;70.50
12426;DHT22;6277;49.824;9.562;2022-10-16T16:47:25;21.90;70.50
12426;DHT22;6277;49.824;9.562;2022-10-16T16:49:51;21.80;70.50
12426;DHT22;6277;49.824;9.562;2022-10-16T16:52:17;21.70;70.60
12426;DHT22;6277;49.824;9.562;2022-10-16T16:54:43;21.60;70.70
12426;DHT22;6277;49.824;9.562;2022-10-16T16:57:10;21.50;70.80
12426;DHT22;6277;49.824;9.562;2022-10-16T16:59:35;21.40;70.90
12426;DHT22;6277;49.824;9.562;2022-10-16T17:02:02;21.30;70.90
12426;DHT22;6277;49.824;9.562;2022-10-16T17:04:28;21.20;71.00
12426;DHT22;6277;49.824;9.562;2022-10-16T17:06:54;21.10;71.00
12426;DHT22;6277;49.824;9.562;2022-10-16T17:09:21;21.00;71.10
12426;DHT22;6277;49.824;9.562;2022-10-16T17:11:46;20.90;71.10
12426;DHT22;6277;49.824;9.562;2022-10-16T17:14:14;20.80;71.10
12426;DHT22;6277;49.824;9.562;2022-10-16T17:16:40;20.70;71.20
12426;DHT22;6277;49.824;9.562;2022-10-16T17:19:12;20.60;71.40
12426;DHT22;6277;49.824;9.562;2022-10-16T17:21:38;20.50;71.60
12426;DHT22;6277;49.824;9.562;2022-10-16T17:24:04;20.40;71.50
12426;DHT22;6277;49.824;9.562;2022-10-16T17:26:30;20.30;71.70
12426;DHT22;6277;49.824;9.562;2022-10-16T17:28:58;20.20;71.80
12426;DHT22;6277;49.824;9.562;2022-10-16T17:31:27;20.20;72.00
12426;DHT22;6277;49.824;9.562;2022-10-16T17:33:53;20.10;72.10
12426;DHT22;6277;49.824;9.562;2022-10-16T17:36:19;20.00;72.10
12426;DHT22;6277;49.824;9.562;2022-10-16T17:38:45;19.90;72.20
12426;DHT22;6277;49.824;9.562;2022-10-16T17:41:20;19.90;72.40
12426;DHT22;6277;49.824;9.562;2022-10-16T17:43:47;19.80;72.60
12426;DHT22;6277;49.824;9.562;2022-10-16T17:46:15;19.70;72.70
12426;DHT22;6277;49.824;9.562;2022-10-16T17:48:43;19.70;72.90